EFHK/HEL METAR and TAF weather

Enter ICAO airport designator
Station Type Date Time Source
EFHK METAR 2021/01/16 02:50 UTC NOAA

EFHK 160250Z 02006KT 9999 -SN FEW017 SCT039 M15/M17 Q1017 NOSIG


Station Type Date Time Source
EFHK Decoded METAR 2021/01/16 02:50 UTC NOAA

Helsinki-Vantaa, Finland (EFHK) 60-19N 024-58E 56M
Jan 15, 2021 - 09:50 PM EST / 2021.01.16 0250 UTC
Wind: from the NNE (020 degrees) at 7 MPH (6 KT):0
Visibility: greater than 7 mile(s):0
Sky conditions: partly cloudy
Weather: light snow
Temperature: 5 F (-15 C)
Windchill: -7 F (-22 C):2
Dew Point: 1 F (-17 C)
Relative Humidity: 84%
Pressure (altimeter): 30.03 in. Hg (1017 hPa)
ob: EFHK 160250Z 02006KT 9999 -SN FEW017 SCT039 M15/M17 Q1017 NOSIG
cycle: 3

Station Type Date Time Source
EFHK TAF 2021/01/16 03:42 UTC NOAA

TAF TAF EFHK 160226Z 1603/1703 04008KT 9999 BKN015
TEMPO 1603/1605 5000 -SN BKN012

Example: see airport list